Terminal Aerodrome Forecast
Issued by NWS

Home | Current Version | Previous Version | Text Only | Print | Product List | Glossary On
Versions: 1 2 3 4 5 6 7 8 9 10 11 12 13 14 15 16 17
000
FTUS43 KIND 261125
TAFBMG
TAF
KBMG 261125Z 2612/2712 14003KT P6SM SCT045 BKN200
     FM262000 24005KT P6SM SCT045 BKN200
     FM270200 07004KT P6SM BKN060 BKN100
     FM270600 08002KT 3SM BR VCSH OVC035
      AMD LTD TO CLD VIS AND WIND TIL 261300=

USA.gov is the U.S. government's official web portal to all federal, state and local government web resources and services.